sensor_id;sensor_type;location;lat;lon;timestamp;P1;durP1;ratioP1;P2;durP2;ratioP2
78834;SDS011;68187;42.682;23.352;2024-03-02T00:01:45;33.53;;;20.13;;
78834;SDS011;68187;42.682;23.352;2024-03-02T00:04:12;32.05;;;20.30;;
78834;SDS011;68187;42.682;23.352;2024-03-02T00:06:39;32.80;;;19.80;;
78834;SDS011;68187;42.682;23.352;2024-03-02T00:09:06;31.50;;;19.17;;
78834;SDS011;68187;42.682;23.352;2024-03-02T00:11:39;27.40;;;16.15;;
78834;SDS011;68187;42.682;23.352;2024-03-02T00:14:06;32.67;;;19.17;;
78834;SDS011;68187;42.682;23.352;2024-03-02T00:16:33;28.83;;;17.52;;
78834;SDS011;68187;42.682;23.352;2024-03-02T00:19:01;27.15;;;17.38;;
78834;SDS011;68187;42.682;23.352;2024-03-02T00:21:29;30.05;;;17.27;;
78834;SDS011;68187;42.682;23.352;2024-03-02T00:23:57;31.75;;;19.05;;
78834;SDS011;68187;42.682;23.352;2024-03-02T00:26:24;28.80;;;17.17;;
78834;SDS011;68187;42.682;23.352;2024-03-02T00:28:54;28.33;;;18.60;;
78834;SDS011;68187;42.682;23.352;2024-03-02T00:31:22;30.08;;;18.40;;
78834;SDS011;68187;42.682;23.352;2024-03-02T00:33:48;30.30;;;18.45;;
78834;SDS011;68187;42.682;23.352;2024-03-02T00:36:16;32.80;;;21.92;;
78834;SDS011;68187;42.682;23.352;2024-03-02T00:38:49;30.67;;;18.38;;
78834;SDS011;68187;42.682;23.352;2024-03-02T00:41:20;27.42;;;17.23;;
78834;SDS011;68187;42.682;23.352;2024-03-02T00:43:51;30.40;;;17.63;;
78834;SDS011;68187;42.682;23.352;2024-03-02T00:46:26;31.08;;;17.50;;
78834;SDS011;68187;42.682;23.352;2024-03-02T00:48:56;28.33;;;16.80;;
78834;SDS011;68187;42.682;23.352;2024-03-02T00:51:24;31.73;;;18.13;;
78834;SDS011;68187;42.682;23.352;2024-03-02T00:53:52;29.15;;;17.88;;
78834;SDS011;68187;42.682;23.352;2024-03-02T00:56:22;28.63;;;13.88;;
78834;SDS011;68187;42.682;23.352;2024-03-02T00:58:49;21.23;;;13.00;;
78834;SDS011;68187;42.682;23.352;2024-03-02T01:01:18;25.88;;;16.38;;
78834;SDS011;68187;42.682;23.352;2024-03-02T01:03:46;28.85;;;17.52;;
78834;SDS011;68187;42.682;23.352;2024-03-02T01:06:14;24.60;;;14.93;;
78834;SDS011;68187;42.682;23.352;2024-03-02T01:08:41;21.65;;;14.20;;
78834;SDS011;68187;42.682;23.352;2024-03-02T01:11:08;25.33;;;14.80;;
78834;SDS011;68187;42.682;23.352;2024-03-02T01:13:35;25.95;;;16.38;;
78834;SDS011;68187;42.682;23.352;2024-03-02T01:16:02;25.27;;;15.45;;
78834;SDS011;68187;42.682;23.352;2024-03-02T01:18:31;23.15;;;14.20;;
78834;SDS011;68187;42.682;23.352;2024-03-02T01:20:58;24.20;;;14.55;;
78834;SDS011;68187;42.682;23.352;2024-03-02T01:23:25;25.42;;;15.57;;
78834;SDS011;68187;42.682;23.352;2024-03-02T01:25:52;22.88;;;14.50;;
78834;SDS011;68187;42.682;23.352;2024-03-02T01:28:20;25.80;;;16.08;;
78834;SDS011;68187;42.682;23.352;2024-03-02T01:30:47;23.73;;;15.02;;
78834;SDS011;68187;42.682;23.352;2024-03-02T01:33:14;23.17;;;14.32;;
78834;SDS011;68187;42.682;23.352;2024-03-02T01:35:42;26.85;;;16.27;;
78834;SDS011;68187;42.682;23.352;2024-03-02T01:38:09;24.52;;;15.25;;
78834;SDS011;68187;42.682;23.352;2024-03-02T01:40:37;24.05;;;14.57;;
78834;SDS011;68187;42.682;23.352;2024-03-02T01:43:04;29.00;;;17.30;;
78834;SDS011;68187;42.682;23.352;2024-03-02T01:45:31;26.30;;;16.00;;
78834;SDS011;68187;42.682;23.352;2024-03-02T01:47:58;27.23;;;17.80;;
78834;SDS011;68187;42.682;23.352;2024-03-02T01:50:26;27.85;;;16.55;;
78834;SDS011;68187;42.682;23.352;2024-03-02T01:52:55;28.50;;;17.73;;
78834;SDS011;68187;42.682;23.352;2024-03-02T01:55:22;30.25;;;17.73;;
78834;SDS011;68187;42.682;23.352;2024-03-02T01:57:49;31.30;;;17.33;;
78834;SDS011;68187;42.682;23.352;2024-03-02T02:00:17;29.13;;;18.00;;
78834;SDS011;68187;42.682;23.352;2024-03-02T02:02:45;27.02;;;15.35;;
78834;SDS011;68187;42.682;23.352;2024-03-02T02:05:12;29.73;;;19.05;;
78834;SDS011;68187;42.682;23.352;2024-03-02T02:07:40;26.83;;;16.92;;
78834;SDS011;68187;42.682;23.352;2024-03-02T02:10:08;27.48;;;19.42;;
78834;SDS011;68187;42.682;23.352;2024-03-02T02:12:36;32.60;;;17.02;;
78834;SDS011;68187;42.682;23.352;2024-03-02T02:15:03;30.02;;;19.20;;
78834;SDS011;68187;42.682;23.352;2024-03-02T02:17:31;28.73;;;19.00;;
78834;SDS011;68187;42.682;23.352;2024-03-02T02:19:58;35.65;;;18.58;;
78834;SDS011;68187;42.682;23.352;2024-03-02T02:22:26;30.98;;;18.95;;
78834;SDS011;68187;42.682;23.352;2024-03-02T02:24:53;31.80;;;18.65;;
78834;SDS011;68187;42.682;23.352;2024-03-02T02:27:20;31.27;;;19.90;;
78834;SDS011;68187;42.682;23.352;2024-03-02T02:29:46;31.77;;;18.70;;
78834;SDS011;68187;42.682;23.352;2024-03-02T02:32:13;33.15;;;20.50;;
78834;SDS011;68187;42.682;23.352;2024-03-02T02:34:40;33.30;;;19.15;;
78834;SDS011;68187;42.682;23.352;2024-03-02T02:37:07;30.58;;;19.95;;
78834;SDS011;68187;42.682;23.352;2024-03-02T02:39:35;32.67;;;19.65;;
78834;SDS011;68187;42.682;23.352;2024-03-02T02:42:03;32.45;;;20.33;;
78834;SDS011;68187;42.682;23.352;2024-03-02T02:44:30;27.15;;;19.95;;
78834;SDS011;68187;42.682;23.352;2024-03-02T02:46:56;30.15;;;18.67;;
78834;SDS011;68187;42.682;23.352;2024-03-02T02:49:23;33.53;;;18.95;;
78834;SDS011;68187;42.682;23.352;2024-03-02T02:51:50;27.92;;;18.52;;
78834;SDS011;68187;42.682;23.352;2024-03-02T02:54:18;29.95;;;18.25;;
78834;SDS011;68187;42.682;23.352;2024-03-02T02:56:46;33.47;;;21.92;;
78834;SDS011;68187;42.682;23.352;2024-03-02T02:59:13;27.15;;;16.85;;
78834;SDS011;68187;42.682;23.352;2024-03-02T03:01:40;34.58;;;18.00;;
78834;SDS011;68187;42.682;23.352;2024-03-02T03:04:07;28.63;;;18.63;;
78834;SDS011;68187;42.682;23.352;2024-03-02T03:06:34;28.60;;;18.92;;
78834;SDS011;68187;42.682;23.352;2024-03-02T03:09:00;30.17;;;17.15;;
78834;SDS011;68187;42.682;23.352;2024-03-02T03:11:28;32.15;;;18.75;;
78834;SDS011;68187;42.682;23.352;2024-03-02T03:13:56;31.90;;;19.55;;
78834;SDS011;68187;42.682;23.352;2024-03-02T03:16:24;33.72;;;19.45;;
78834;SDS011;68187;42.682;23.352;2024-03-02T03:18:51;30.20;;;19.60;;
78834;SDS011;68187;42.682;23.352;2024-03-02T03:21:19;29.42;;;17.45;;
78834;SDS011;68187;42.682;23.352;2024-03-02T03:23:46;30.90;;;18.63;;
78834;SDS011;68187;42.682;23.352;2024-03-02T03:26:13;29.95;;;19.80;;
78834;SDS011;68187;42.682;23.352;2024-03-02T03:28:40;28.38;;;18.70;;
78834;SDS011;68187;42.682;23.352;2024-03-02T03:31:08;29.58;;;18.55;;
78834;SDS011;68187;42.682;23.352;2024-03-02T03:33:35;30.17;;;19.88;;
78834;SDS011;68187;42.682;23.352;2024-03-02T03:36:02;33.88;;;18.67;;
78834;SDS011;68187;42.682;23.352;2024-03-02T03:38:30;30.13;;;19.02;;
78834;SDS011;68187;42.682;23.352;2024-03-02T03:40:57;34.65;;;18.13;;
78834;SDS011;68187;42.682;23.352;2024-03-02T03:43:23;28.73;;;18.73;;
78834;SDS011;68187;42.682;23.352;2024-03-02T03:45:51;36.25;;;21.17;;
78834;SDS011;68187;42.682;23.352;2024-03-02T03:48:19;32.03;;;21.92;;
78834;SDS011;68187;42.682;23.352;2024-03-02T03:50:46;31.00;;;18.67;;
78834;SDS011;68187;42.682;23.352;2024-03-02T03:53:13;33.13;;;18.50;;
78834;SDS011;68187;42.682;23.352;2024-03-02T03:55:41;32.13;;;14.98;;
78834;SDS011;68187;42.682;23.352;2024-03-02T03:58:08;30.45;;;19.00;;
78834;SDS011;68187;42.682;23.352;2024-03-02T04:00:34;30.02;;;19.52;;
78834;SDS011;68187;42.682;23.352;2024-03-02T04:03:01;31.77;;;19.75;;
78834;SDS011;68187;42.682;23.352;2024-03-02T04:05:30;29.60;;;18.35;;
78834;SDS011;68187;42.682;23.352;2024-03-02T04:07:57;30.20;;;18.27;;
78834;SDS011;68187;42.682;23.352;2024-03-02T04:10:23;31.05;;;21.45;;
78834;SDS011;68187;42.682;23.352;2024-03-02T04:12:50;31.02;;;18.23;;
78834;SDS011;68187;42.682;23.352;2024-03-02T04:15:17;33.03;;;20.17;;
78834;SDS011;68187;42.682;23.352;2024-03-02T04:17:45;29.85;;;18.52;;
78834;SDS011;68187;42.682;23.352;2024-03-02T04:20:12;31.42;;;17.67;;
78834;SDS011;68187;42.682;23.352;2024-03-02T04:22:40;30.83;;;18.58;;
78834;SDS011;68187;42.682;23.352;2024-03-02T04:25:07;36.15;;;21.10;;
78834;SDS011;68187;42.682;23.352;2024-03-02T04:27:34;33.75;;;19.58;;
78834;SDS011;68187;42.682;23.352;2024-03-02T04:30:01;32.13;;;17.92;;
78834;SDS011;68187;42.682;23.352;2024-03-02T04:32:30;30.65;;;18.55;;
78834;SDS011;68187;42.682;23.352;2024-03-02T04:34:57;29.60;;;18.88;;
78834;SDS011;68187;42.682;23.352;2024-03-02T04:37:24;31.88;;;19.20;;
78834;SDS011;68187;42.682;23.352;2024-03-02T04:39:52;33.50;;;19.77;;
78834;SDS011;68187;42.682;23.352;2024-03-02T04:42:19;31.50;;;19.40;;
78834;SDS011;68187;42.682;23.352;2024-03-02T04:44:46;37.13;;;18.40;;
78834;SDS011;68187;42.682;23.352;2024-03-02T04:47:13;31.70;;;19.30;;
78834;SDS011;68187;42.682;23.352;2024-03-02T04:49:40;29.55;;;19.40;;
78834;SDS011;68187;42.682;23.352;2024-03-02T04:52:06;33.00;;;18.55;;
78834;SDS011;68187;42.682;23.352;2024-03-02T04:54:33;34.35;;;20.38;;
78834;SDS011;68187;42.682;23.352;2024-03-02T04:57:22;37.45;;;18.70;;
78834;SDS011;68187;42.682;23.352;2024-03-02T04:59:49;28.30;;;18.50;;
78834;SDS011;68187;42.682;23.352;2024-03-02T05:02:16;31.17;;;18.52;;
78834;SDS011;68187;42.682;23.352;2024-03-02T05:04:42;30.02;;;15.48;;
78834;SDS011;68187;42.682;23.352;2024-03-02T05:07:09;34.38;;;20.98;;
78834;SDS011;68187;42.682;23.352;2024-03-02T05:09:36;31.50;;;20.73;;
78834;SDS011;68187;42.682;23.352;2024-03-02T05:12:03;34.92;;;20.88;;
78834;SDS011;68187;42.682;23.352;2024-03-02T05:14:49;35.33;;;19.50;;
78834;SDS011;68187;42.682;23.352;2024-03-02T05:17:16;38.05;;;19.83;;
78834;SDS011;68187;42.682;23.352;2024-03-02T05:19:43;37.05;;;20.55;;
78834;SDS011;68187;42.682;23.352;2024-03-02T05:22:10;32.47;;;19.08;;
78834;SDS011;68187;42.682;23.352;2024-03-02T05:24:37;31.55;;;17.85;;
78834;SDS011;68187;42.682;23.352;2024-03-02T05:27:04;33.83;;;17.02;;
78834;SDS011;68187;42.682;23.352;2024-03-02T05:29:32;31.63;;;19.20;;
78834;SDS011;68187;42.682;23.352;2024-03-02T05:32:01;32.28;;;20.30;;
78834;SDS011;68187;42.682;23.352;2024-03-02T05:34:27;34.17;;;15.95;;
78834;SDS011;68187;42.682;23.352;2024-03-02T05:36:55;36.03;;;19.23;;
78834;SDS011;68187;42.682;23.352;2024-03-02T05:39:23;35.28;;;20.85;;
78834;SDS011;68187;42.682;23.352;2024-03-02T05:41:50;37.60;;;19.63;;
78834;SDS011;68187;42.682;23.352;2024-03-02T05:44:17;33.63;;;18.75;;
78834;SDS011;68187;42.682;23.352;2024-03-02T05:46:44;32.95;;;19.20;;
78834;SDS011;68187;42.682;23.352;2024-03-02T05:49:13;32.45;;;17.85;;
78834;SDS011;68187;42.682;23.352;2024-03-02T05:51:40;37.65;;;20.67;;
78834;SDS011;68187;42.682;23.352;2024-03-02T05:54:06;32.67;;;20.90;;
78834;SDS011;68187;42.682;23.352;2024-03-02T05:56:33;36.22;;;19.67;;
78834;SDS011;68187;42.682;23.352;2024-03-02T05:59:01;34.92;;;19.80;;
78834;SDS011;68187;42.682;23.352;2024-03-02T06:01:37;34.08;;;21.38;;
78834;SDS011;68187;42.682;23.352;2024-03-02T06:04:04;32.45;;;17.92;;
78834;SDS011;68187;42.682;23.352;2024-03-02T06:06:33;35.63;;;19.77;;
78834;SDS011;68187;42.682;23.352;2024-03-02T06:09:00;30.88;;;18.02;;
78834;SDS011;68187;42.682;23.352;2024-03-02T06:11:27;35.97;;;23.48;;
78834;SDS011;68187;42.682;23.352;2024-03-02T06:13:54;35.65;;;19.17;;
78834;SDS011;68187;42.682;23.352;2024-03-02T06:16:21;36.13;;;21.48;;
78834;SDS011;68187;42.682;23.352;2024-03-02T06:18:48;36.13;;;21.75;;
78834;SDS011;68187;42.682;23.352;2024-03-02T06:21:15;35.78;;;18.98;;
78834;SDS011;68187;42.682;23.352;2024-03-02T06:23:45;35.95;;;17.92;;
78834;SDS011;68187;42.682;23.352;2024-03-02T06:26:12;37.65;;;20.60;;
78834;SDS011;68187;42.682;23.352;2024-03-02T06:28:39;38.08;;;18.85;;
78834;SDS011;68187;42.682;23.352;2024-03-02T06:31:06;35.30;;;21.73;;
78834;SDS011;68187;42.682;23.352;2024-03-02T06:33:33;31.08;;;20.00;;
78834;SDS011;68187;42.682;23.352;2024-03-02T06:36:00;38.72;;;21.52;;
78834;SDS011;68187;42.682;23.352;2024-03-02T06:38:25;34.78;;;20.30;;
78834;SDS011;68187;42.682;23.352;2024-03-02T06:40:54;35.35;;;20.90;;
78834;SDS011;68187;42.682;23.352;2024-03-02T06:43:21;36.55;;;20.67;;
78834;SDS011;68187;42.682;23.352;2024-03-02T06:45:48;36.00;;;20.65;;
78834;SDS011;68187;42.682;23.352;2024-03-02T06:48:15;35.47;;;21.23;;
78834;SDS011;68187;42.682;23.352;2024-03-02T06:50:45;34.03;;;18.20;;
78834;SDS011;68187;42.682;23.352;2024-03-02T06:53:12;33.72;;;19.05;;
78834;SDS011;68187;42.682;23.352;2024-03-02T06:55:39;36.05;;;20.33;;
78834;SDS011;68187;42.682;23.352;2024-03-02T06:58:07;37.45;;;19.15;;
78834;SDS011;68187;42.682;23.352;2024-03-02T07:00:34;39.00;;;19.95;;
78834;SDS011;68187;42.682;23.352;2024-03-02T07:03:01;38.33;;;21.25;;
78834;SDS011;68187;42.682;23.352;2024-03-02T07:05:28;39.13;;;22.90;;
78834;SDS011;68187;42.682;23.352;2024-03-02T07:07:55;34.72;;;20.38;;
78834;SDS011;68187;42.682;23.352;2024-03-02T07:10:22;36.30;;;17.63;;
78834;SDS011;68187;42.682;23.352;2024-03-02T07:12:49;40.10;;;22.48;;
78834;SDS011;68187;42.682;23.352;2024-03-02T07:15:17;39.95;;;21.13;;
78834;SDS011;68187;42.682;23.352;2024-03-02T07:18:08;35.13;;;21.40;;
78834;SDS011;68187;42.682;23.352;2024-03-02T07:20:35;33.15;;;17.13;;
78834;SDS011;68187;42.682;23.352;2024-03-02T07:23:03;32.88;;;18.70;;
78834;SDS011;68187;42.682;23.352;2024-03-02T07:25:31;38.50;;;20.55;;
78834;SDS011;68187;42.682;23.352;2024-03-02T07:27:57;35.47;;;18.70;;
78834;SDS011;68187;42.682;23.352;2024-03-02T07:30:26;35.17;;;19.77;;
78834;SDS011;68187;42.682;23.352;2024-03-02T07:32:53;34.83;;;19.20;;
78834;SDS011;68187;42.682;23.352;2024-03-02T07:35:20;34.80;;;20.60;;
78834;SDS011;68187;42.682;23.352;2024-03-02T07:37:47;35.35;;;19.67;;
78834;SDS011;68187;42.682;23.352;2024-03-02T07:40:14;38.22;;;21.65;;
78834;SDS011;68187;42.682;23.352;2024-03-02T07:42:41;37.65;;;21.75;;
78834;SDS011;68187;42.682;23.352;2024-03-02T07:45:08;35.03;;;19.65;;
78834;SDS011;68187;42.682;23.352;2024-03-02T07:47:37;37.88;;;19.88;;
78834;SDS011;68187;42.682;23.352;2024-03-02T07:50:04;38.05;;;21.50;;
78834;SDS011;68187;42.682;23.352;2024-03-02T07:52:32;38.17;;;20.67;;
78834;SDS011;68187;42.682;23.352;2024-03-02T07:54:59;33.20;;;18.98;;
78834;SDS011;68187;42.682;23.352;2024-03-02T07:57:26;34.50;;;16.67;;
78834;SDS011;68187;42.682;23.352;2024-03-02T07:59:53;31.27;;;16.67;;
78834;SDS011;68187;42.682;23.352;2024-03-02T08:02:20;34.50;;;19.60;;
78834;SDS011;68187;42.682;23.352;2024-03-02T08:04:48;35.25;;;19.45;;
78834;SDS011;68187;42.682;23.352;2024-03-02T08:07:15;36.35;;;21.25;;
78834;SDS011;68187;42.682;23.352;2024-03-02T08:09:42;34.80;;;19.02;;
78834;SDS011;68187;42.682;23.352;2024-03-02T08:12:09;37.05;;;23.45;;
78834;SDS011;68187;42.682;23.352;2024-03-02T08:14:36;35.75;;;21.65;;
78834;SDS011;68187;42.682;23.352;2024-03-02T08:17:03;32.15;;;20.30;;
78834;SDS011;68187;42.682;23.352;2024-03-02T08:19:34;39.40;;;21.02;;
78834;SDS011;68187;42.682;23.352;2024-03-02T08:22:03;35.95;;;20.15;;
78834;SDS011;68187;42.682;23.352;2024-03-02T08:24:30;33.38;;;19.52;;
78834;SDS011;68187;42.682;23.352;2024-03-02T08:26:57;31.88;;;17.92;;
78834;SDS011;68187;42.682;23.352;2024-03-02T08:29:25;39.03;;;21.40;;
78834;SDS011;68187;42.682;23.352;2024-03-02T08:31:52;36.08;;;19.60;;
78834;SDS011;68187;42.682;23.352;2024-03-02T08:34:19;35.03;;;17.20;;
78834;SDS011;68187;42.682;23.352;2024-03-02T08:36:46;33.83;;;18.40;;
78834;SDS011;68187;42.682;23.352;2024-03-02T08:39:15;33.83;;;19.58;;
78834;SDS011;68187;42.682;23.352;2024-03-02T08:41:42;35.03;;;20.58;;
78834;SDS011;68187;42.682;23.352;2024-03-02T08:44:10;34.20;;;19.75;;
78834;SDS011;68187;42.682;23.352;2024-03-02T08:46:38;32.55;;;19.55;;
78834;SDS011;68187;42.682;23.352;2024-03-02T08:49:05;37.90;;;20.08;;
78834;SDS011;68187;42.682;23.352;2024-03-02T08:51:32;41.47;;;21.67;;
78834;SDS011;68187;42.682;23.352;2024-03-02T08:53:59;34.58;;;20.90;;
78834;SDS011;68187;42.682;23.352;2024-03-02T08:56:27;36.33;;;17.95;;
78834;SDS011;68187;42.682;23.352;2024-03-02T08:58:54;35.78;;;20.20;;
78834;SDS011;68187;42.682;23.352;2024-03-02T09:01:21;39.80;;;20.92;;
78834;SDS011;68187;42.682;23.352;2024-03-02T09:03:48;37.58;;;22.92;;
78834;SDS011;68187;42.682;23.352;2024-03-02T09:06:15;38.03;;;21.83;;
78834;SDS011;68187;42.682;23.352;2024-03-02T09:08:45;36.67;;;21.63;;
78834;SDS011;68187;42.682;23.352;2024-03-02T09:11:13;33.55;;;20.02;;
78834;SDS011;68187;42.682;23.352;2024-03-02T09:13:41;36.08;;;21.80;;
78834;SDS011;68187;42.682;23.352;2024-03-02T09:16:09;35.22;;;20.10;;
78834;SDS011;68187;42.682;23.352;2024-03-02T09:18:37;34.75;;;20.65;;
78834;SDS011;68187;42.682;23.352;2024-03-02T09:21:04;33.00;;;19.85;;
78834;SDS011;68187;42.682;23.352;2024-03-02T09:23:31;32.63;;;19.38;;
78834;SDS011;68187;42.682;23.352;2024-03-02T09:25:58;32.88;;;20.40;;
78834;SDS011;68187;42.682;23.352;2024-03-02T09:28:25;30.08;;;18.08;;
78834;SDS011;68187;42.682;23.352;2024-03-02T09:30:54;31.75;;;20.05;;
78834;SDS011;68187;42.682;23.352;2024-03-02T09:33:21;28.38;;;18.23;;
78834;SDS011;68187;42.682;23.352;2024-03-02T09:35:47;32.38;;;18.23;;
78834;SDS011;68187;42.682;23.352;2024-03-02T09:38:15;31.42;;;17.58;;
78834;SDS011;68187;42.682;23.352;2024-03-02T09:40:41;32.67;;;18.17;;
78834;SDS011;68187;42.682;23.352;2024-03-02T09:43:08;32.95;;;18.55;;
78834;SDS011;68187;42.682;23.352;2024-03-02T09:45:36;33.72;;;19.02;;
78834;SDS011;68187;42.682;23.352;2024-03-02T09:48:05;32.88;;;19.08;;
78834;SDS011;68187;42.682;23.352;2024-03-02T09:50:32;33.88;;;19.48;;
78834;SDS011;68187;42.682;23.352;2024-03-02T09:52:59;32.90;;;20.23;;
78834;SDS011;68187;42.682;23.352;2024-03-02T09:55:26;43.25;;;25.20;;
78834;SDS011;68187;42.682;23.352;2024-03-02T09:57:53;36.92;;;22.15;;
78834;SDS011;68187;42.682;23.352;2024-03-02T10:00:21;37.08;;;21.13;;
78834;SDS011;68187;42.682;23.352;2024-03-02T10:02:48;34.03;;;20.10;;
78834;SDS011;68187;42.682;23.352;2024-03-02T10:05:24;36.55;;;22.48;;
78834;SDS011;68187;42.682;23.352;2024-03-02T10:08:02;40.83;;;21.52;;
78834;SDS011;68187;42.682;23.352;2024-03-02T10:10:36;37.70;;;21.85;;
78834;SDS011;68187;42.682;23.352;2024-03-02T10:13:05;35.83;;;18.75;;
78834;SDS011;68187;42.682;23.352;2024-03-02T10:15:34;37.95;;;22.23;;
78834;SDS011;68187;42.682;23.352;2024-03-02T10:18:02;38.22;;;22.77;;
78834;SDS011;68187;42.682;23.352;2024-03-02T10:20:31;35.42;;;21.80;;
78834;SDS011;68187;42.682;23.352;2024-03-02T10:23:09;34.95;;;21.30;;
78834;SDS011;68187;42.682;23.352;2024-03-02T10:25:37;33.58;;;18.42;;
78834;SDS011;68187;42.682;23.352;2024-03-02T10:28:04;35.55;;;19.95;;
78834;SDS011;68187;42.682;23.352;2024-03-02T10:30:32;37.05;;;21.30;;
78834;SDS011;68187;42.682;23.352;2024-03-02T10:33:00;36.55;;;20.67;;
78834;SDS011;68187;42.682;23.352;2024-03-02T10:35:27;37.25;;;21.02;;
78834;SDS011;68187;42.682;23.352;2024-03-02T10:37:57;34.22;;;18.98;;
78834;SDS011;68187;42.682;23.352;2024-03-02T10:40:26;35.03;;;20.92;;
78834;SDS011;68187;42.682;23.352;2024-03-02T10:42:53;33.28;;;19.20;;
78834;SDS011;68187;42.682;23.352;2024-03-02T10:45:20;32.38;;;18.75;;
78834;SDS011;68187;42.682;23.352;2024-03-02T10:47:48;32.03;;;21.67;;
78834;SDS011;68187;42.682;23.352;2024-03-02T10:50:16;33.20;;;16.05;;
78834;SDS011;68187;42.682;23.352;2024-03-02T10:52:43;31.85;;;17.77;;
78834;SDS011;68187;42.682;23.352;2024-03-02T10:55:13;29.23;;;17.75;;
78834;SDS011;68187;42.682;23.352;2024-03-02T10:57:45;32.63;;;17.27;;
78834;SDS011;68187;42.682;23.352;2024-03-02T11:00:18;32.00;;;16.65;;
78834;SDS011;68187;42.682;23.352;2024-03-02T11:02:50;30.33;;;17.15;;
78834;SDS011;68187;42.682;23.352;2024-03-02T11:05:22;29.25;;;17.65;;
78834;SDS011;68187;42.682;23.352;2024-03-02T11:07:53;31.65;;;17.55;;
78834;SDS011;68187;42.682;23.352;2024-03-02T11:10:29;30.38;;;17.73;;
78834;SDS011;68187;42.682;23.352;2024-03-02T11:13:02;26.75;;;15.90;;
78834;SDS011;68187;42.682;23.352;2024-03-02T11:15:31;31.02;;;17.95;;
78834;SDS011;68187;42.682;23.352;2024-03-02T11:18:00;28.83;;;17.48;;
78834;SDS011;68187;42.682;23.352;2024-03-02T11:20:30;29.20;;;15.45;;
78834;SDS011;68187;42.682;23.352;2024-03-02T11:22:58;26.25;;;17.30;;
78834;SDS011;68187;42.682;23.352;2024-03-02T11:25:32;27.30;;;16.00;;
78834;SDS011;68187;42.682;23.352;2024-03-02T11:28:00;27.60;;;16.77;;
78834;SDS011;68187;42.682;23.352;2024-03-02T11:33:24;28.05;;;18.10;;
78834;SDS011;68187;42.682;23.352;2024-03-02T11:35:56;30.35;;;20.10;;
78834;SDS011;68187;42.682;23.352;2024-03-02T11:38:27;26.77;;;17.85;;
78834;SDS011;68187;42.682;23.352;2024-03-02T11:40:56;27.73;;;15.50;;
78834;SDS011;68187;42.682;23.352;2024-03-02T11:43:24;28.98;;;18.05;;
78834;SDS011;68187;42.682;23.352;2024-03-02T11:45:56;28.20;;;16.98;;
78834;SDS011;68187;42.682;23.352;2024-03-02T11:48:23;29.48;;;18.77;;
78834;SDS011;68187;42.682;23.352;2024-03-02T11:50:51;26.52;;;17.42;;
78834;SDS011;68187;42.682;23.352;2024-03-02T11:53:19;29.15;;;16.85;;
78834;SDS011;68187;42.682;23.352;2024-03-02T11:55:47;23.65;;;12.82;;
78834;SDS011;68187;42.682;23.352;2024-03-02T11:58:16;30.38;;;17.42;;
78834;SDS011;68187;42.682;23.352;2024-03-02T12:00:45;31.15;;;20.75;;
78834;SDS011;68187;42.682;23.352;2024-03-02T12:03:13;26.35;;;15.95;;
78834;SDS011;68187;42.682;23.352;2024-03-02T12:05:40;28.63;;;17.33;;
78834;SDS011;68187;42.682;23.352;2024-03-02T12:08:07;28.52;;;17.80;;
78834;SDS011;68187;42.682;23.352;2024-03-02T12:10:35;27.27;;;16.50;;
78834;SDS011;68187;42.682;23.352;2024-03-02T12:13:03;23.48;;;15.75;;
78834;SDS011;68187;42.682;23.352;2024-03-02T12:15:34;25.80;;;15.30;;
78834;SDS011;68187;42.682;23.352;2024-03-02T12:18:02;22.42;;;15.80;;
78834;SDS011;68187;42.682;23.352;2024-03-02T12:20:29;22.55;;;16.20;;
78834;SDS011;68187;42.682;23.352;2024-03-02T12:22:58;23.88;;;14.57;;
78834;SDS011;68187;42.682;23.352;2024-03-02T12:25:25;22.27;;;16.67;;
78834;SDS011;68187;42.682;23.352;2024-03-02T12:27:54;23.02;;;15.98;;
78834;SDS011;68187;42.682;23.352;2024-03-02T12:30:21;21.50;;;14.25;;
78834;SDS011;68187;42.682;23.352;2024-03-02T12:32:50;23.80;;;16.20;;
78834;SDS011;68187;42.682;23.352;2024-03-02T12:35:17;25.20;;;15.85;;
78834;SDS011;68187;42.682;23.352;2024-03-02T12:37:46;24.75;;;16.70;;
78834;SDS011;68187;42.682;23.352;2024-03-02T12:40:13;23.92;;;16.33;;
78834;SDS011;68187;42.682;23.352;2024-03-02T12:42:43;25.08;;;17.60;;
78834;SDS011;68187;42.682;23.352;2024-03-02T12:45:11;25.85;;;15.43;;
78834;SDS011;68187;42.682;23.352;2024-03-02T12:47:39;25.80;;;16.50;;
78834;SDS011;68187;42.682;23.352;2024-03-02T12:50:08;23.25;;;16.17;;
78834;SDS011;68187;42.682;23.352;2024-03-02T12:52:36;23.95;;;17.77;;
78834;SDS011;68187;42.682;23.352;2024-03-02T12:55:04;23.58;;;16.90;;
78834;SDS011;68187;42.682;23.352;2024-03-02T12:57:32;25.27;;;16.48;;
78834;SDS011;68187;42.682;23.352;2024-03-02T12:59:59;22.80;;;14.95;;
78834;SDS011;68187;42.682;23.352;2024-03-02T13:02:27;21.75;;;11.95;;
78834;SDS011;68187;42.682;23.352;2024-03-02T13:04:55;21.83;;;14.32;;
78834;SDS011;68187;42.682;23.352;2024-03-02T13:07:25;20.27;;;14.35;;
78834;SDS011;68187;42.682;23.352;2024-03-02T13:09:52;20.35;;;14.05;;
78834;SDS011;68187;42.682;23.352;2024-03-02T13:12:21;18.40;;;14.10;;
78834;SDS011;68187;42.682;23.352;2024-03-02T13:14:49;19.63;;;13.57;;
78834;SDS011;68187;42.682;23.352;2024-03-02T13:17:17;22.73;;;14.48;;
78834;SDS011;68187;42.682;23.352;2024-03-02T13:19:51;21.10;;;14.80;;
78834;SDS011;68187;42.682;23.352;2024-03-02T13:22:19;21.98;;;14.43;;
78834;SDS011;68187;42.682;23.352;2024-03-02T13:24:47;22.55;;;16.00;;
78834;SDS011;68187;42.682;23.352;2024-03-02T13:27:14;20.48;;;14.48;;
78834;SDS011;68187;42.682;23.352;2024-03-02T13:29:44;23.77;;;15.30;;
78834;SDS011;68187;42.682;23.352;2024-03-02T13:32:11;20.13;;;13.52;;
78834;SDS011;68187;42.682;23.352;2024-03-02T13:34:38;20.92;;;15.02;;
78834;SDS011;68187;42.682;23.352;2024-03-02T13:37:05;22.42;;;15.85;;
78834;SDS011;68187;42.682;23.352;2024-03-02T13:39:32;22.88;;;15.95;;
78834;SDS011;68187;42.682;23.352;2024-03-02T13:42:06;23.08;;;15.32;;
78834;SDS011;68187;42.682;23.352;2024-03-02T13:44:34;24.77;;;16.05;;
78834;SDS011;68187;42.682;23.352;2024-03-02T13:47:02;25.50;;;16.13;;
78834;SDS011;68187;42.682;23.352;2024-03-02T13:49:29;20.95;;;14.27;;
78834;SDS011;68187;42.682;23.352;2024-03-02T13:52:01;24.23;;;15.93;;
78834;SDS011;68187;42.682;23.352;2024-03-02T13:54:36;26.50;;;16.40;;
78834;SDS011;68187;42.682;23.352;2024-03-02T13:57:04;23.48;;;17.90;;
78834;SDS011;68187;42.682;23.352;2024-03-02T13:59:32;21.88;;;15.73;;
78834;SDS011;68187;42.682;23.352;2024-03-02T14:02:00;25.77;;;16.35;;
78834;SDS011;68187;42.682;23.352;2024-03-02T14:04:29;24.67;;;17.45;;
78834;SDS011;68187;42.682;23.352;2024-03-02T14:06:56;22.65;;;17.27;;
78834;SDS011;68187;42.682;23.352;2024-03-02T14:09:23;23.10;;;16.23;;
78834;SDS011;68187;42.682;23.352;2024-03-02T14:11:50;25.67;;;16.75;;
78834;SDS011;68187;42.682;23.352;2024-03-02T14:14:17;27.77;;;17.88;;
78834;SDS011;68187;42.682;23.352;2024-03-02T14:16:45;27.70;;;15.00;;